sensor_id;sensor_type;location;lat;lon;timestamp;temperature;humidity
23160;DHT22;11748;50.844;4.396;2024-01-15T00:02:23;3.00;99.90
23160;DHT22;11748;50.844;4.396;2024-01-15T00:04:49;3.10;99.90
23160;DHT22;11748;50.844;4.396;2024-01-15T00:07:15;3.10;99.90
23160;DHT22;11748;50.844;4.396;2024-01-15T00:09:40;3.00;99.90
23160;DHT22;11748;50.844;4.396;2024-01-15T00:12:06;3.10;99.90
23160;DHT22;11748;50.844;4.396;2024-01-15T00:14:32;3.10;99.90
23160;DHT22;11748;50.844;4.396;2024-01-15T00:16:57;3.20;99.90
23160;DHT22;11748;50.844;4.396;2024-01-15T00:19:23;3.10;99.90
23160;DHT22;11748;50.844;4.396;2024-01-15T00:21:49;3.20;99.90
23160;DHT22;11748;50.844;4.396;2024-01-15T00:24:15;3.20;99.90
23160;DHT22;11748;50.844;4.396;2024-01-15T00:26:41;3.20;99.90
23160;DHT22;11748;50.844;4.396;2024-01-15T00:29:10;3.20;99.90
23160;DHT22;11748;50.844;4.396;2024-01-15T00:31:35;3.10;99.90
23160;DHT22;11748;50.844;4.396;2024-01-15T00:34:01;3.20;99.90
23160;DHT22;11748;50.844;4.396;2024-01-15T00:36:27;3.20;99.90
23160;DHT22;11748;50.844;4.396;2024-01-15T00:38:53;3.20;99.90
23160;DHT22;11748;50.844;4.396;2024-01-15T00:41:19;3.40;99.90
23160;DHT22;11748;50.844;4.396;2024-01-15T00:43:45;3.40;99.90
23160;DHT22;11748;50.844;4.396;2024-01-15T00:46:11;3.50;99.90
23160;DHT22;11748;50.844;4.396;2024-01-15T00:48:37;3.40;99.90
23160;DHT22;11748;50.844;4.396;2024-01-15T00:51:04;3.30;99.90
23160;DHT22;11748;50.844;4.396;2024-01-15T00:53:30;3.40;99.90
23160;DHT22;11748;50.844;4.396;2024-01-15T00:55:56;3.50;99.90
23160;DHT22;11748;50.844;4.396;2024-01-15T00:58:22;3.50;99.90
23160;DHT22;11748;50.844;4.396;2024-01-15T01:00:47;3.50;99.90
23160;DHT22;11748;50.844;4.396;2024-01-15T01:03:13;3.50;99.90
23160;DHT22;11748;50.844;4.396;2024-01-15T01:05:38;3.60;99.90
23160;DHT22;11748;50.844;4.396;2024-01-15T01:08:04;3.60;99.90
23160;DHT22;11748;50.844;4.396;2024-01-15T01:10:30;3.60;99.90
23160;DHT22;11748;50.844;4.396;2024-01-15T01:12:55;3.60;99.90
23160;DHT22;11748;50.844;4.396;2024-01-15T01:15:21;3.70;99.90
23160;DHT22;11748;50.844;4.396;2024-01-15T01:17:47;3.80;99.90
23160;DHT22;11748;50.844;4.396;2024-01-15T01:20:12;3.90;99.90
23160;DHT22;11748;50.844;4.396;2024-01-15T01:22:39;4.00;99.90
23160;DHT22;11748;50.844;4.396;2024-01-15T01:25:05;4.10;99.90
23160;DHT22;11748;50.844;4.396;2024-01-15T01:27:31;4.00;99.90
23160;DHT22;11748;50.844;4.396;2024-01-15T01:29:56;4.00;99.90
23160;DHT22;11748;50.844;4.396;2024-01-15T01:32:22;3.80;99.90
23160;DHT22;11748;50.844;4.396;2024-01-15T01:34:47;3.90;99.90
23160;DHT22;11748;50.844;4.396;2024-01-15T01:37:13;4.00;99.90
23160;DHT22;11748;50.844;4.396;2024-01-15T01:39:40;3.90;99.90
23160;DHT22;11748;50.844;4.396;2024-01-15T01:42:06;3.90;99.90
23160;DHT22;11748;50.844;4.396;2024-01-15T01:44:32;4.00;99.90
23160;DHT22;11748;50.844;4.396;2024-01-15T01:46:58;3.90;99.90
23160;DHT22;11748;50.844;4.396;2024-01-15T01:49:25;3.90;99.90
23160;DHT22;11748;50.844;4.396;2024-01-15T01:51:51;3.90;99.90
23160;DHT22;11748;50.844;4.396;2024-01-15T01:54:18;3.90;99.90
23160;DHT22;11748;50.844;4.396;2024-01-15T01:56:45;4.00;99.90
23160;DHT22;11748;50.844;4.396;2024-01-15T01:59:12;3.80;99.90
23160;DHT22;11748;50.844;4.396;2024-01-15T02:01:38;3.80;99.90
23160;DHT22;11748;50.844;4.396;2024-01-15T02:04:04;3.80;99.90
23160;DHT22;11748;50.844;4.396;2024-01-15T02:06:30;3.70;99.90
23160;DHT22;11748;50.844;4.396;2024-01-15T02:08:56;3.70;99.90
23160;DHT22;11748;50.844;4.396;2024-01-15T02:11:21;3.70;99.90
23160;DHT22;11748;50.844;4.396;2024-01-15T02:13:47;3.70;99.90
23160;DHT22;11748;50.844;4.396;2024-01-15T02:16:13;3.80;99.90
23160;DHT22;11748;50.844;4.396;2024-01-15T02:18:42;3.80;99.90
23160;DHT22;11748;50.844;4.396;2024-01-15T02:21:09;3.70;99.90
23160;DHT22;11748;50.844;4.396;2024-01-15T02:23:35;3.80;99.90
23160;DHT22;11748;50.844;4.396;2024-01-15T02:26:01;3.90;99.90
23160;DHT22;11748;50.844;4.396;2024-01-15T02:28:27;3.80;99.90
23160;DHT22;11748;50.844;4.396;2024-01-15T02:30:52;3.90;99.90
23160;DHT22;11748;50.844;4.396;2024-01-15T02:33:18;3.80;99.90
23160;DHT22;11748;50.844;4.396;2024-01-15T02:35:44;3.80;99.90
23160;DHT22;11748;50.844;4.396;2024-01-15T02:38:12;3.70;99.90
23160;DHT22;11748;50.844;4.396;2024-01-15T02:40:38;3.60;99.90
23160;DHT22;11748;50.844;4.396;2024-01-15T02:43:04;3.70;99.90
23160;DHT22;11748;50.844;4.396;2024-01-15T02:45:29;3.90;99.90
23160;DHT22;11748;50.844;4.396;2024-01-15T02:47:55;3.80;99.90
23160;DHT22;11748;50.844;4.396;2024-01-15T02:50:21;3.80;99.90
23160;DHT22;11748;50.844;4.396;2024-01-15T02:52:46;3.80;99.90
23160;DHT22;11748;50.844;4.396;2024-01-15T02:55:12;4.00;99.90
23160;DHT22;11748;50.844;4.396;2024-01-15T02:57:38;3.90;99.90
23160;DHT22;11748;50.844;4.396;2024-01-15T03:00:04;3.70;99.90
23160;DHT22;11748;50.844;4.396;2024-01-15T03:02:30;3.80;99.90
23160;DHT22;11748;50.844;4.396;2024-01-15T03:04:57;4.00;99.90
23160;DHT22;11748;50.844;4.396;2024-01-15T03:07:23;4.00;99.90
23160;DHT22;11748;50.844;4.396;2024-01-15T03:09:48;4.00;99.90
23160;DHT22;11748;50.844;4.396;2024-01-15T03:12:15;4.00;99.90
23160;DHT22;11748;50.844;4.396;2024-01-15T03:14:41;3.90;99.90
23160;DHT22;11748;50.844;4.396;2024-01-15T03:17:06;3.80;99.90
23160;DHT22;11748;50.844;4.396;2024-01-15T03:19:35;3.80;99.90
23160;DHT22;11748;50.844;4.396;2024-01-15T03:22:00;3.70;99.90
23160;DHT22;11748;50.844;4.396;2024-01-15T03:24:28;3.60;99.90
23160;DHT22;11748;50.844;4.396;2024-01-15T03:26:53;3.60;99.90
23160;DHT22;11748;50.844;4.396;2024-01-15T03:29:19;3.50;99.90
23160;DHT22;11748;50.844;4.396;2024-01-15T03:31:45;3.50;99.90
23160;DHT22;11748;50.844;4.396;2024-01-15T03:34:11;3.60;99.90
23160;DHT22;11748;50.844;4.396;2024-01-15T03:36:37;3.70;99.90
23160;DHT22;11748;50.844;4.396;2024-01-15T03:39:03;3.90;99.90
23160;DHT22;11748;50.844;4.396;2024-01-15T03:41:28;4.00;99.90
23160;DHT22;11748;50.844;4.396;2024-01-15T03:43:54;3.90;99.90
23160;DHT22;11748;50.844;4.396;2024-01-15T03:46:19;3.90;99.90
23160;DHT22;11748;50.844;4.396;2024-01-15T03:48:45;3.80;99.90
23160;DHT22;11748;50.844;4.396;2024-01-15T03:51:12;3.80;99.90
23160;DHT22;11748;50.844;4.396;2024-01-15T03:53:38;3.60;99.90
23160;DHT22;11748;50.844;4.396;2024-01-15T03:56:05;3.70;99.90
23160;DHT22;11748;50.844;4.396;2024-01-15T03:58:31;3.60;99.90
23160;DHT22;11748;50.844;4.396;2024-01-15T04:00:56;3.70;99.90
23160;DHT22;11748;50.844;4.396;2024-01-15T04:03:22;3.60;99.90
23160;DHT22;11748;50.844;4.396;2024-01-15T04:05:47;3.50;99.90
23160;DHT22;11748;50.844;4.396;2024-01-15T04:08:14;3.60;99.90
23160;DHT22;11748;50.844;4.396;2024-01-15T04:10:40;3.40;99.90
23160;DHT22;11748;50.844;4.396;2024-01-15T04:13:06;3.30;99.90
23160;DHT22;11748;50.844;4.396;2024-01-15T04:15:31;3.30;99.90
23160;DHT22;11748;50.844;4.396;2024-01-15T04:17:58;3.40;99.90
23160;DHT22;11748;50.844;4.396;2024-01-15T04:20:24;3.40;99.90
23160;DHT22;11748;50.844;4.396;2024-01-15T04:22:49;3.50;99.90
23160;DHT22;11748;50.844;4.396;2024-01-15T04:25:15;3.40;99.90
23160;DHT22;11748;50.844;4.396;2024-01-15T04:27:40;3.60;99.90
23160;DHT22;11748;50.844;4.396;2024-01-15T04:30:06;3.70;99.90
23160;DHT22;11748;50.844;4.396;2024-01-15T04:32:32;3.70;99.90
23160;DHT22;11748;50.844;4.396;2024-01-15T04:34:58;3.80;99.90
23160;DHT22;11748;50.844;4.396;2024-01-15T04:37:23;3.70;99.90
23160;DHT22;11748;50.844;4.396;2024-01-15T04:39:49;3.70;99.90
23160;DHT22;11748;50.844;4.396;2024-01-15T04:42:18;3.60;99.90
23160;DHT22;11748;50.844;4.396;2024-01-15T04:44:43;3.30;99.90
23160;DHT22;11748;50.844;4.396;2024-01-15T04:47:10;3.20;99.90
23160;DHT22;11748;50.844;4.396;2024-01-15T04:49:35;3.40;99.90
23160;DHT22;11748;50.844;4.396;2024-01-15T04:52:02;3.50;99.90
23160;DHT22;11748;50.844;4.396;2024-01-15T04:54:28;3.60;99.90
23160;DHT22;11748;50.844;4.396;2024-01-15T04:56:53;3.60;99.90
23160;DHT22;11748;50.844;4.396;2024-01-15T04:59:19;3.70;99.90
23160;DHT22;11748;50.844;4.396;2024-01-15T05:01:44;3.70;99.90
23160;DHT22;11748;50.844;4.396;2024-01-15T05:04:10;3.70;99.90
23160;DHT22;11748;50.844;4.396;2024-01-15T05:06:35;3.70;99.90
23160;DHT22;11748;50.844;4.396;2024-01-15T05:09:01;3.60;99.90
23160;DHT22;11748;50.844;4.396;2024-01-15T05:11:26;3.50;99.90
23160;DHT22;11748;50.844;4.396;2024-01-15T05:13:52;3.60;99.90
23160;DHT22;11748;50.844;4.396;2024-01-15T05:16:18;3.60;99.90
23160;DHT22;11748;50.844;4.396;2024-01-15T05:18:43;3.80;99.90
23160;DHT22;11748;50.844;4.396;2024-01-15T05:21:09;3.70;99.90
23160;DHT22;11748;50.844;4.396;2024-01-15T05:23:34;3.60;99.90
23160;DHT22;11748;50.844;4.396;2024-01-15T05:26:00;3.60;99.90
23160;DHT22;11748;50.844;4.396;2024-01-15T05:28:25;3.60;99.90
23160;DHT22;11748;50.844;4.396;2024-01-15T05:30:51;3.60;99.90
23160;DHT22;11748;50.844;4.396;2024-01-15T05:33:17;3.60;99.90
23160;DHT22;11748;50.844;4.396;2024-01-15T05:35:43;3.50;99.90
23160;DHT22;11748;50.844;4.396;2024-01-15T05:38:08;3.50;99.90
23160;DHT22;11748;50.844;4.396;2024-01-15T05:40:34;3.60;99.90
23160;DHT22;11748;50.844;4.396;2024-01-15T05:43:00;3.70;99.90
23160;DHT22;11748;50.844;4.396;2024-01-15T05:45:30;3.60;99.90
23160;DHT22;11748;50.844;4.396;2024-01-15T05:47:56;3.70;99.90
23160;DHT22;11748;50.844;4.396;2024-01-15T05:50:22;3.70;99.90
23160;DHT22;11748;50.844;4.396;2024-01-15T05:52:47;3.80;99.90
23160;DHT22;11748;50.844;4.396;2024-01-15T05:55:13;3.60;99.90
23160;DHT22;11748;50.844;4.396;2024-01-15T05:57:39;3.50;99.90
23160;DHT22;11748;50.844;4.396;2024-01-15T06:00:05;3.40;99.90
23160;DHT22;11748;50.844;4.396;2024-01-15T06:02:33;3.30;99.90
23160;DHT22;11748;50.844;4.396;2024-01-15T06:04:58;3.30;99.90
23160;DHT22;11748;50.844;4.396;2024-01-15T06:07:24;3.40;99.90
23160;DHT22;11748;50.844;4.396;2024-01-15T06:09:50;3.30;99.90
23160;DHT22;11748;50.844;4.396;2024-01-15T06:12:15;3.30;99.90
23160;DHT22;11748;50.844;4.396;2024-01-15T06:14:41;3.30;99.90
23160;DHT22;11748;50.844;4.396;2024-01-15T06:17:08;3.50;99.90
23160;DHT22;11748;50.844;4.396;2024-01-15T06:19:33;3.50;99.90
23160;DHT22;11748;50.844;4.396;2024-01-15T06:21:59;3.30;99.90
23160;DHT22;11748;50.844;4.396;2024-01-15T06:24:24;3.20;99.90
23160;DHT22;11748;50.844;4.396;2024-01-15T06:26:50;3.00;99.90
23160;DHT22;11748;50.844;4.396;2024-01-15T06:29:17;3.00;99.90
23160;DHT22;11748;50.844;4.396;2024-01-15T06:31:42;2.90;99.90
23160;DHT22;11748;50.844;4.396;2024-01-15T06:34:08;2.80;99.90
23160;DHT22;11748;50.844;4.396;2024-01-15T06:36:34;2.80;99.90
23160;DHT22;11748;50.844;4.396;2024-01-15T06:38:59;2.70;99.90
23160;DHT22;11748;50.844;4.396;2024-01-15T06:41:25;2.70;99.90
23160;DHT22;11748;50.844;4.396;2024-01-15T06:43:51;2.70;99.90
23160;DHT22;11748;50.844;4.396;2024-01-15T06:46:22;2.60;99.90
23160;DHT22;11748;50.844;4.396;2024-01-15T06:48:48;2.60;99.90
23160;DHT22;11748;50.844;4.396;2024-01-15T06:51:15;2.50;99.90
23160;DHT22;11748;50.844;4.396;2024-01-15T06:53:41;2.50;99.90
23160;DHT22;11748;50.844;4.396;2024-01-15T06:56:07;2.50;99.90
23160;DHT22;11748;50.844;4.396;2024-01-15T06:58:33;2.50;99.90
23160;DHT22;11748;50.844;4.396;2024-01-15T07:00:59;2.60;99.90
23160;DHT22;11748;50.844;4.396;2024-01-15T07:03:25;2.60;99.90
23160;DHT22;11748;50.844;4.396;2024-01-15T07:05:50;2.70;99.90
23160;DHT22;11748;50.844;4.396;2024-01-15T07:08:16;2.70;99.90
23160;DHT22;11748;50.844;4.396;2024-01-15T07:10:42;2.70;99.90
23160;DHT22;11748;50.844;4.396;2024-01-15T07:13:08;2.70;99.90
23160;DHT22;11748;50.844;4.396;2024-01-15T07:15:33;2.70;99.90
23160;DHT22;11748;50.844;4.396;2024-01-15T07:17:59;2.80;99.90
23160;DHT22;11748;50.844;4.396;2024-01-15T07:20:25;2.80;99.90
23160;DHT22;11748;50.844;4.396;2024-01-15T07:22:50;2.80;99.90
23160;DHT22;11748;50.844;4.396;2024-01-15T07:25:16;2.70;99.90
23160;DHT22;11748;50.844;4.396;2024-01-15T07:27:42;2.60;99.90
23160;DHT22;11748;50.844;4.396;2024-01-15T07:30:12;2.60;99.90
23160;DHT22;11748;50.844;4.396;2024-01-15T07:32:38;2.70;99.90
23160;DHT22;11748;50.844;4.396;2024-01-15T07:35:04;2.80;99.90
23160;DHT22;11748;50.844;4.396;2024-01-15T07:37:30;2.80;99.90
23160;DHT22;11748;50.844;4.396;2024-01-15T07:39:56;2.60;99.90
23160;DHT22;11748;50.844;4.396;2024-01-15T07:42:21;2.50;99.90
23160;DHT22;11748;50.844;4.396;2024-01-15T07:44:47;2.50;99.90
23160;DHT22;11748;50.844;4.396;2024-01-15T07:47:13;2.50;99.90
23160;DHT22;11748;50.844;4.396;2024-01-15T07:49:39;2.50;99.90
23160;DHT22;11748;50.844;4.396;2024-01-15T07:52:08;2.50;99.90
23160;DHT22;11748;50.844;4.396;2024-01-15T07:54:36;2.50;99.90
23160;DHT22;11748;50.844;4.396;2024-01-15T07:57:02;2.40;99.90
23160;DHT22;11748;50.844;4.396;2024-01-15T07:59:31;2.40;99.90
23160;DHT22;11748;50.844;4.396;2024-01-15T08:01:59;2.50;99.90
23160;DHT22;11748;50.844;4.396;2024-01-15T08:04:27;2.50;99.90
23160;DHT22;11748;50.844;4.396;2024-01-15T08:06:53;2.50;99.90
23160;DHT22;11748;50.844;4.396;2024-01-15T08:09:19;2.50;99.90
23160;DHT22;11748;50.844;4.396;2024-01-15T08:11:45;2.60;99.90
23160;DHT22;11748;50.844;4.396;2024-01-15T08:14:12;2.70;99.90
23160;DHT22;11748;50.844;4.396;2024-01-15T08:16:38;2.90;99.90
23160;DHT22;11748;50.844;4.396;2024-01-15T08:19:05;3.00;99.90
23160;DHT22;11748;50.844;4.396;2024-01-15T08:21:31;3.00;99.90
23160;DHT22;11748;50.844;4.396;2024-01-15T08:23:59;3.20;99.90
23160;DHT22;11748;50.844;4.396;2024-01-15T08:26:25;3.30;99.90
23160;DHT22;11748;50.844;4.396;2024-01-15T08:28:51;3.50;99.90
23160;DHT22;11748;50.844;4.396;2024-01-15T08:31:18;3.60;99.90
23160;DHT22;11748;50.844;4.396;2024-01-15T08:33:43;3.60;99.90
23160;DHT22;11748;50.844;4.396;2024-01-15T08:36:09;3.60;99.90
23160;DHT22;11748;50.844;4.396;2024-01-15T08:38:35;3.70;99.90
23160;DHT22;11748;50.844;4.396;2024-01-15T08:41:02;3.60;99.90
23160;DHT22;11748;50.844;4.396;2024-01-15T08:43:27;3.40;99.90
23160;DHT22;11748;50.844;4.396;2024-01-15T08:45:53;3.40;99.90
23160;DHT22;11748;50.844;4.396;2024-01-15T08:48:19;3.40;99.90
23160;DHT22;11748;50.844;4.396;2024-01-15T08:50:45;3.40;99.90
23160;DHT22;11748;50.844;4.396;2024-01-15T08:53:14;3.60;99.90
23160;DHT22;11748;50.844;4.396;2024-01-15T08:55:40;3.60;99.90
23160;DHT22;11748;50.844;4.396;2024-01-15T08:58:07;3.60;99.90
23160;DHT22;11748;50.844;4.396;2024-01-15T09:00:34;3.60;99.90
23160;DHT22;11748;50.844;4.396;2024-01-15T09:02:59;3.70;99.90
23160;DHT22;11748;50.844;4.396;2024-01-15T09:05:25;3.50;99.90
23160;DHT22;11748;50.844;4.396;2024-01-15T09:07:51;3.50;99.90
23160;DHT22;11748;50.844;4.396;2024-01-15T09:10:20;3.50;99.90
23160;DHT22;11748;50.844;4.396;2024-01-15T09:12:46;3.40;99.90
23160;DHT22;11748;50.844;4.396;2024-01-15T09:15:12;3.30;99.90
23160;DHT22;11748;50.844;4.396;2024-01-15T09:17:37;3.40;99.90
23160;DHT22;11748;50.844;4.396;2024-01-15T09:20:04;3.40;99.90
23160;DHT22;11748;50.844;4.396;2024-01-15T09:22:31;3.50;99.90
23160;DHT22;11748;50.844;4.396;2024-01-15T09:24:57;3.40;99.90
23160;DHT22;11748;50.844;4.396;2024-01-15T09:27:22;3.40;99.90
23160;DHT22;11748;50.844;4.396;2024-01-15T09:29:48;3.50;99.90
23160;DHT22;11748;50.844;4.396;2024-01-15T09:32:15;3.40;99.90
23160;DHT22;11748;50.844;4.396;2024-01-15T09:34:41;3.40;99.90
23160;DHT22;11748;50.844;4.396;2024-01-15T09:37:07;3.30;99.90
23160;DHT22;11748;50.844;4.396;2024-01-15T09:39:33;3.30;99.90
23160;DHT22;11748;50.844;4.396;2024-01-15T09:42:01;3.40;99.90
23160;DHT22;11748;50.844;4.396;2024-01-15T09:44:28;3.30;99.90
23160;DHT22;11748;50.844;4.396;2024-01-15T09:46:56;3.50;99.90
23160;DHT22;11748;50.844;4.396;2024-01-15T09:49:22;3.50;99.90
23160;DHT22;11748;50.844;4.396;2024-01-15T09:51:49;3.50;99.90
23160;DHT22;11748;50.844;4.396;2024-01-15T09:54:16;3.50;99.90
23160;DHT22;11748;50.844;4.396;2024-01-15T09:56:45;3.60;99.90
23160;DHT22;11748;50.844;4.396;2024-01-15T09:59:15;3.70;99.90
23160;DHT22;11748;50.844;4.396;2024-01-15T10:01:41;3.60;99.90
23160;DHT22;11748;50.844;4.396;2024-01-15T10:04:07;3.40;99.90
23160;DHT22;11748;50.844;4.396;2024-01-15T10:06:33;3.40;99.90
23160;DHT22;11748;50.844;4.396;2024-01-15T10:08:59;3.70;99.90
23160;DHT22;11748;50.844;4.396;2024-01-15T10:11:25;3.90;99.90
23160;DHT22;11748;50.844;4.396;2024-01-15T10:13:52;3.90;99.90
23160;DHT22;11748;50.844;4.396;2024-01-15T10:16:21;4.00;99.90
23160;DHT22;11748;50.844;4.396;2024-01-15T10:18:48;4.00;99.90
23160;DHT22;11748;50.844;4.396;2024-01-15T10:21:13;3.90;99.90
23160;DHT22;11748;50.844;4.396;2024-01-15T10:23:39;3.80;99.90
23160;DHT22;11748;50.844;4.396;2024-01-15T10:26:05;3.80;99.90
23160;DHT22;11748;50.844;4.396;2024-01-15T10:28:31;3.80;99.90
23160;DHT22;11748;50.844;4.396;2024-01-15T10:30:58;3.80;99.90
23160;DHT22;11748;50.844;4.396;2024-01-15T10:33:24;3.80;99.90
23160;DHT22;11748;50.844;4.396;2024-01-15T10:35:57;3.90;99.90
23160;DHT22;11748;50.844;4.396;2024-01-15T10:38:25;3.90;99.90
23160;DHT22;11748;50.844;4.396;2024-01-15T10:40:54;3.80;99.90
23160;DHT22;11748;50.844;4.396;2024-01-15T10:43:21;4.00;99.90
23160;DHT22;11748;50.844;4.396;2024-01-15T10:45:51;4.00;99.90
23160;DHT22;11748;50.844;4.396;2024-01-15T10:48:17;3.90;99.90
23160;DHT22;11748;50.844;4.396;2024-01-15T10:50:44;3.90;99.90
23160;DHT22;11748;50.844;4.396;2024-01-15T10:53:12;4.00;99.90
23160;DHT22;11748;50.844;4.396;2024-01-15T10:55:38;3.90;99.90
23160;DHT22;11748;50.844;4.396;2024-01-15T10:58:07;4.00;99.90
23160;DHT22;11748;50.844;4.396;2024-01-15T11:00:34;4.10;99.90
23160;DHT22;11748;50.844;4.396;2024-01-15T11:03:01;4.20;99.90
23160;DHT22;11748;50.844;4.396;2024-01-15T11:05:33;4.20;99.90
23160;DHT22;11748;50.844;4.396;2024-01-15T11:07:59;4.20;99.90
23160;DHT22;11748;50.844;4.396;2024-01-15T11:10:45;4.50;99.90
23160;DHT22;11748;50.844;4.396;2024-01-15T11:13:21;4.70;99.90
23160;DHT22;11748;50.844;4.396;2024-01-15T11:16:01;4.90;99.90
23160;DHT22;11748;50.844;4.396;2024-01-15T11:18:31;5.00;99.90
23160;DHT22;11748;50.844;4.396;2024-01-15T11:26:46;5.00;99.90
23160;DHT22;11748;50.844;4.396;2024-01-15T11:31:57;4.80;99.90
23160;DHT22;11748;50.844;4.396;2024-01-15T11:37:15;4.50;99.90
23160;DHT22;11748;50.844;4.396;2024-01-15T11:39:43;4.50;99.90
23160;DHT22;11748;50.844;4.396;2024-01-15T11:42:10;4.60;99.90
23160;DHT22;11748;50.844;4.396;2024-01-15T11:44:40;4.60;99.90
23160;DHT22;11748;50.844;4.396;2024-01-15T11:47:07;4.60;99.90
23160;DHT22;11748;50.844;4.396;2024-01-15T11:49:58;4.60;99.90
23160;DHT22;11748;50.844;4.396;2024-01-15T11:52:25;4.50;99.90
23160;DHT22;11748;50.844;4.396;2024-01-15T12:00:13;4.40;99.90
23160;DHT22;11748;50.844;4.396;2024-01-15T12:02:43;4.40;99.90
23160;DHT22;11748;50.844;4.396;2024-01-15T12:05:10;4.40;99.90
23160;DHT22;11748;50.844;4.396;2024-01-15T12:07:41;4.50;99.90
23160;DHT22;11748;50.844;4.396;2024-01-15T12:10:10;4.50;99.90
23160;DHT22;11748;50.844;4.396;2024-01-15T12:15:23;4.40;99.90
23160;DHT22;11748;50.844;4.396;2024-01-15T12:17:49;4.40;99.90
23160;DHT22;11748;50.844;4.396;2024-01-15T12:20:15;4.50;99.90
23160;DHT22;11748;50.844;4.396;2024-01-15T12:22:44;4.40;99.90
23160;DHT22;11748;50.844;4.396;2024-01-15T12:25:10;4.40;99.90
23160;DHT22;11748;50.844;4.396;2024-01-15T12:27:36;4.50;99.90
23160;DHT22;11748;50.844;4.396;2024-01-15T12:30:02;4.80;99.90
23160;DHT22;11748;50.844;4.396;2024-01-15T12:32:29;4.80;99.90
23160;DHT22;11748;50.844;4.396;2024-01-15T12:34:54;4.80;99.90
23160;DHT22;11748;50.844;4.396;2024-01-15T12:37:20;5.00;99.90
23160;DHT22;11748;50.844;4.396;2024-01-15T12:39:46;5.00;99.90
23160;DHT22;11748;50.844;4.396;2024-01-15T12:42:14;5.00;99.90
23160;DHT22;11748;50.844;4.396;2024-01-15T12:44:41;4.90;99.90
23160;DHT22;11748;50.844;4.396;2024-01-15T12:47:07;4.80;99.90
23160;DHT22;11748;50.844;4.396;2024-01-15T12:49:33;4.70;99.90
23160;DHT22;11748;50.844;4.396;2024-01-15T12:52:01;4.60;99.90
23160;DHT22;11748;50.844;4.396;2024-01-15T12:54:26;4.60;99.90
23160;DHT22;11748;50.844;4.396;2024-01-15T12:56:52;4.60;99.90
23160;DHT22;11748;50.844;4.396;2024-01-15T12:59:18;4.50;99.90
23160;DHT22;11748;50.844;4.396;2024-01-15T13:01:45;4.50;99.90
23160;DHT22;11748;50.844;4.396;2024-01-15T13:04:11;4.50;99.90
23160;DHT22;11748;50.844;4.396;2024-01-15T13:06:37;4.60;99.90
23160;DHT22;11748;50.844;4.396;2024-01-15T13:09:04;4.70;99.90
23160;DHT22;11748;50.844;4.396;2024-01-15T13:11:35;4.80;99.90
23160;DHT22;11748;50.844;4.396;2024-01-15T13:14:01;4.70;99.90
23160;DHT22;11748;50.844;4.396;2024-01-15T13:16:26;4.60;99.90
23160;DHT22;11748;50.844;4.396;2024-01-15T13:18:55;4.50;99.90
23160;DHT22;11748;50.844;4.396;2024-01-15T13:21:22;4.40;99.90
23160;DHT22;11748;50.844;4.396;2024-01-15T13:23:50;4.40;99.90
23160;DHT22;11748;50.844;4.396;2024-01-15T13:26:15;4.50;99.90
23160;DHT22;11748;50.844;4.396;2024-01-15T13:28:46;4.50;99.90
23160;DHT22;11748;50.844;4.396;2024-01-15T13:31:12;4.50;99.90
23160;DHT22;11748;50.844;4.396;2024-01-15T13:33:40;4.60;99.90
23160;DHT22;11748;50.844;4.396;2024-01-15T13:36:06;4.70;99.90
23160;DHT22;11748;50.844;4.396;2024-01-15T13:38:37;4.70;99.90
23160;DHT22;11748;50.844;4.396;2024-01-15T13:41:05;4.70;99.90
23160;DHT22;11748;50.844;4.396;2024-01-15T13:43:32;4.70;99.90
23160;DHT22;11748;50.844;4.396;2024-01-15T13:46:00;4.70;99.90
23160;DHT22;11748;50.844;4.396;2024-01-15T13:48:26;4.70;99.90
23160;DHT22;11748;50.844;4.396;2024-01-15T13:50:52;4.80;99.90
23160;DHT22;11748;50.844;4.396;2024-01-15T13:53:18;5.00;99.90
23160;DHT22;11748;50.844;4.396;2024-01-15T13:55:45;5.10;99.90
23160;DHT22;11748;50.844;4.396;2024-01-15T13:58:11;5.10;99.90
23160;DHT22;11748;50.844;4.396;2024-01-15T14:00:38;5.00;99.90
23160;DHT22;11748;50.844;4.396;2024-01-15T14:03:04;5.00;99.90
23160;DHT22;11748;50.844;4.396;2024-01-15T14:05:31;4.90;99.90
23160;DHT22;11748;50.844;4.396;2024-01-15T14:07:58;5.00;99.90
23160;DHT22;11748;50.844;4.396;2024-01-15T14:10:24;5.10;99.90
23160;DHT22;11748;50.844;4.396;2024-01-15T14:12:49;5.30;99.90
23160;DHT22;11748;50.844;4.396;2024-01-15T14:15:15;5.30;99.90
23160;DHT22;11748;50.844;4.396;2024-01-15T14:17:41;5.30;99.90
23160;DHT22;11748;50.844;4.396;2024-01-15T14:20:07;5.30;99.90
23160;DHT22;11748;50.844;4.396;2024-01-15T14:22:34;5.30;99.90
23160;DHT22;11748;50.844;4.396;2024-01-15T14:25:01;5.20;99.90
23160;DHT22;11748;50.844;4.396;2024-01-15T14:27:26;4.90;99.90
23160;DHT22;11748;50.844;4.396;2024-01-15T14:29:52;4.80;99.90
23160;DHT22;11748;50.844;4.396;2024-01-15T14:32:18;5.00;99.90
23160;DHT22;11748;50.844;4.396;2024-01-15T14:34:44;4.90;99.90
23160;DHT22;11748;50.844;4.396;2024-01-15T14:37:10;4.70;99.90
23160;DHT22;11748;50.844;4.396;2024-01-15T14:39:36;4.20;99.90
23160;DHT22;11748;50.844;4.396;2024-01-15T14:42:02;4.10;99.90
23160;DHT22;11748;50.844;4.396;2024-01-15T14:44:27;3.90;99.90
23160;DHT22;11748;50.844;4.396;2024-01-15T14:46:55;3.70;99.90
23160;DHT22;11748;50.844;4.396;2024-01-15T14:49:24;3.60;99.90
23160;DHT22;11748;50.844;4.396;2024-01-15T14:51:50;3.60;99.90
23160;DHT22;11748;50.844;4.396;2024-01-15T14:54:17;3.60;99.90
23160;DHT22;11748;50.844;4.396;2024-01-15T14:56:42;3.60;99.90
23160;DHT22;11748;50.844;4.396;2024-01-15T14:59:09;3.60;99.90
23160;DHT22;11748;50.844;4.396;2024-01-15T15:01:35;3.50;99.90
23160;DHT22;11748;50.844;4.396;2024-01-15T15:04:00;3.40;99.90
23160;DHT22;11748;50.844;4.396;2024-01-15T15:06:26;3.30;99.90
23160;DHT22;11748;50.844;4.396;2024-01-15T15:08:53;3.30;99.90
23160;DHT22;11748;50.844;4.396;2024-01-15T15:11:25;3.30;99.90
23160;DHT22;11748;50.844;4.396;2024-01-15T15:13:52;3.30;99.90
23160;DHT22;11748;50.844;4.396;2024-01-15T15:16:18;3.30;99.90
23160;DHT22;11748;50.844;4.396;2024-01-15T15:18:43;3.30;99.90
23160;DHT22;11748;50.844;4.396;2024-01-15T15:21:09;3.20;99.90
23160;DHT22;11748;50.844;4.396;2024-01-15T15:23:36;3.10;99.90
23160;DHT22;11748;50.844;4.396;2024-01-15T15:26:04;3.20;99.90
23160;DHT22;11748;50.844;4.396;2024-01-15T15:28:30;3.30;99.90
23160;DHT22;11748;50.844;4.396;2024-01-15T15:30:56;3.10;99.90
23160;DHT22;11748;50.844;4.396;2024-01-15T15:33:23;3.10;99.90
23160;DHT22;11748;50.844;4.396;2024-01-15T15:35:49;3.10;99.90
23160;DHT22;11748;50.844;4.396;2024-01-15T15:38:17;3.10;99.90
23160;DHT22;11748;50.844;4.396;2024-01-15T15:40:43;3.10;99.90
23160;DHT22;11748;50.844;4.396;2024-01-15T15:43:08;3.00;99.90
23160;DHT22;11748;50.844;4.396;2024-01-15T15:45:34;2.90;99.90
23160;DHT22;11748;50.844;4.396;2024-01-15T15:48:00;2.90;99.90
23160;DHT22;11748;50.844;4.396;2024-01-15T15:50:25;2.90;99.90
23160;DHT22;11748;50.844;4.396;2024-01-15T15:52:51;3.00;99.90
23160;DHT22;11748;50.844;4.396;2024-01-15T15:55:17;3.00;99.90
23160;DHT22;11748;50.844;4.396;2024-01-15T15:57:43;3.10;99.90
23160;DHT22;11748;50.844;4.396;2024-01-15T16:00:08;3.10;99.90